createdAt,value
2023-03-04T00:02:13.818Z,100.00
2023-03-04T00:04:40.546Z,100.00
2023-03-04T00:07:07.184Z,100.00
2023-03-04T00:09:33.755Z,100.00
2023-03-04T00:12:00.345Z,100.00
2023-03-04T00:14:29.967Z,100.00
2023-03-04T00:16:57.241Z,100.00
2023-03-04T00:19:24.010Z,100.00
2023-03-04T00:21:50.819Z,100.00
2023-03-04T00:24:17.491Z,100.00
2023-03-04T00:26:44.327Z,100.00
2023-03-04T00:29:10.897Z,100.00
2023-03-04T00:31:37.747Z,100.00
2023-03-04T00:34:04.698Z,100.00
2023-03-04T00:36:31.365Z,100.00
2023-03-04T00:38:58.027Z,100.00
2023-03-04T00:41:24.882Z,100.00
2023-03-04T00:43:51.905Z,100.00
2023-03-04T00:46:18.591Z,100.00
2023-03-04T00:48:45.446Z,100.00
2023-03-04T00:51:12.174Z,100.00
2023-03-04T00:53:39.002Z,100.00
2023-03-04T00:56:06.248Z,100.00
2023-03-04T00:58:32.801Z,100.00
2023-03-04T01:00:59.628Z,100.00
2023-03-04T01:03:26.954Z,100.00
2023-03-04T01:05:53.752Z,100.00
2023-03-04T01:08:20.369Z,100.00
2023-03-04T01:10:48.628Z,100.00
2023-03-04T01:13:15.272Z,100.00
2023-03-04T01:15:43.663Z,100.00
2023-03-04T01:18:10.621Z,100.00
2023-03-04T01:20:37.334Z,100.00
2023-03-04T01:23:04.133Z,100.00
2023-03-04T01:25:30.794Z,100.00
2023-03-04T01:27:58.836Z,100.00
2023-03-04T01:30:25.494Z,100.00
2023-03-04T01:32:52.028Z,100.00
2023-03-04T01:35:19.016Z,100.00
2023-03-04T01:37:45.764Z,100.00
2023-03-04T01:40:13.814Z,100.00
2023-03-04T01:42:41.104Z,100.00
2023-03-04T01:45:12.957Z,100.00
2023-03-04T01:47:39.882Z,100.00
2023-03-04T01:50:16.868Z,100.00
2023-03-04T01:52:44.100Z,100.00
2023-03-04T01:55:19.644Z,100.00
2023-03-04T01:57:48.552Z,100.00
2023-03-04T02:00:32.683Z,100.00
2023-03-04T02:03:04.045Z,100.00
2023-03-04T02:05:31.258Z,100.00
2023-03-04T02:07:58.770Z,100.00
2023-03-04T02:10:26.065Z,100.00
2023-03-04T02:12:52.979Z,100.00
2023-03-04T02:15:19.979Z,100.00
2023-03-04T02:17:46.769Z,100.00
2023-03-04T02:20:22.684Z,100.00
2023-03-04T02:23:24.324Z,100.00
2023-03-04T02:26:13.859Z,100.00
2023-03-04T02:28:41.533Z,100.00
2023-03-04T02:31:25.362Z,100.00
2023-03-04T02:33:54.054Z,100.00
2023-03-04T02:36:22.038Z,100.00
2023-03-04T02:38:53.414Z,100.00
2023-03-04T02:41:25.212Z,100.00
2023-03-04T02:43:53.544Z,100.00
2023-03-04T02:46:20.904Z,100.00
2023-03-04T02:48:47.515Z,100.00
2023-03-04T02:51:14.221Z,100.00
2023-03-04T02:53:41.041Z,100.00
2023-03-04T02:56:08.195Z,100.00
2023-03-04T02:58:38.369Z,100.00
2023-03-04T03:01:06.694Z,100.00
2023-03-04T03:03:33.542Z,100.00
2023-03-04T03:06:00.415Z,100.00
2023-03-04T03:08:27.090Z,100.00
2023-03-04T03:10:54.387Z,100.00
2023-03-04T03:13:22.325Z,100.00
2023-03-04T03:15:50.147Z,100.00
2023-03-04T03:18:17.397Z,100.00
2023-03-04T03:20:43.962Z,100.00
2023-03-04T03:23:10.875Z,100.00
2023-03-04T03:25:37.832Z,100.00
2023-03-04T03:28:05.558Z,100.00
2023-03-04T03:30:33.062Z,100.00
2023-03-04T03:33:00.015Z,100.00
2023-03-04T03:35:27.043Z,100.00
2023-03-04T03:37:53.742Z,100.00
2023-03-04T03:40:20.613Z,100.00
2023-03-04T03:42:47.289Z,100.00
2023-03-04T03:45:14.260Z,100.00
2023-03-04T03:47:41.250Z,100.00
2023-03-04T03:50:08.226Z,100.00
2023-03-04T03:52:35.022Z,100.00
2023-03-04T03:55:02.214Z,100.00
2023-03-04T03:57:29.909Z,100.00
2023-03-04T03:59:56.786Z,100.00
2023-03-04T04:02:23.526Z,100.00
2023-03-04T04:04:50.585Z,100.00
2023-03-04T04:07:17.771Z,100.00
2023-03-04T04:09:45.039Z,100.00
2023-03-04T04:12:14.641Z,100.00
2023-03-04T04:14:41.518Z,100.00
2023-03-04T04:17:08.355Z,100.00
2023-03-04T04:19:35.271Z,100.00
2023-03-04T04:22:02.894Z,100.00
2023-03-04T04:24:29.800Z,100.00
2023-03-04T04:26:57.337Z,100.00
2023-03-04T04:29:24.209Z,100.00
2023-03-04T04:31:50.856Z,100.00
2023-03-04T04:34:17.621Z,100.00
2023-03-04T04:36:44.767Z,100.00
2023-03-04T04:39:11.515Z,100.00
2023-03-04T04:41:41.925Z,100.00
2023-03-04T04:44:09.410Z,100.00
2023-03-04T04:46:36.693Z,100.00
2023-03-04T04:49:04.723Z,100.00
2023-03-04T04:51:31.768Z,100.00
2023-03-04T04:54:00.121Z,100.00
2023-03-04T04:56:27.519Z,100.00
2023-03-04T04:58:57.536Z,100.00
2023-03-04T05:01:25.391Z,100.00
2023-03-04T05:03:55.573Z,100.00
2023-03-04T05:06:24.106Z,100.00
2023-03-04T05:08:51.559Z,100.00
2023-03-04T05:11:19.600Z,100.00
2023-03-04T05:13:46.921Z,100.00
2023-03-04T05:16:14.562Z,100.00
2023-03-04T05:18:41.378Z,100.00
2023-03-04T05:21:08.740Z,100.00
2023-03-04T05:23:38.490Z,100.00
2023-03-04T05:26:06.572Z,100.00
2023-03-04T05:28:34.795Z,100.00
2023-03-04T05:31:01.794Z,100.00
2023-03-04T05:33:28.910Z,100.00
2023-03-04T05:35:55.676Z,100.00
2023-03-04T05:38:22.869Z,100.00
2023-03-04T05:40:49.694Z,100.00
2023-03-04T05:43:16.618Z,100.00
2023-03-04T05:45:43.338Z,100.00
2023-03-04T05:48:10.016Z,100.00
2023-03-04T05:50:36.918Z,100.00
2023-03-04T05:53:03.650Z,100.00
2023-03-04T05:55:30.220Z,100.00
2023-03-04T05:57:57.731Z,100.00
2023-03-04T06:00:25.273Z,100.00
2023-03-04T06:02:52.059Z,100.00
2023-03-04T06:05:18.925Z,100.00
2023-03-04T06:07:45.754Z,100.00
2023-03-04T06:10:14.927Z,100.00
2023-03-04T06:12:42.249Z,100.00
2023-03-04T06:15:10.631Z,100.00
2023-03-04T06:17:41.800Z,100.00
2023-03-04T06:20:11.014Z,100.00
2023-03-04T06:22:37.703Z,100.00
2023-03-04T06:25:04.706Z,100.00
2023-03-04T06:27:31.543Z,100.00
2023-03-04T06:29:58.235Z,100.00
2023-03-04T06:32:25.222Z,100.00
2023-03-04T06:34:52.215Z,100.00
2023-03-04T06:37:19.251Z,100.00
2023-03-04T06:39:46.036Z,100.00
2023-03-04T06:42:13.009Z,100.00
2023-03-04T06:44:40.108Z,100.00
2023-03-04T06:47:07.043Z,100.00
2023-03-04T06:49:33.715Z,100.00
2023-03-04T06:52:00.757Z,100.00
2023-03-04T06:54:27.547Z,100.00
2023-03-04T06:56:54.179Z,100.00
2023-03-04T06:59:21.009Z,100.00
2023-03-04T07:01:47.562Z,100.00
2023-03-04T07:04:14.748Z,100.00
2023-03-04T07:06:41.479Z,100.00
2023-03-04T07:09:08.093Z,100.00
2023-03-04T07:11:34.982Z,100.00
2023-03-04T07:14:01.592Z,100.00
2023-03-04T07:16:28.514Z,100.00
2023-03-04T07:18:55.289Z,100.00
2023-03-04T07:21:22.034Z,100.00
2023-03-04T07:23:48.575Z,100.00
2023-03-04T07:26:15.466Z,100.00
2023-03-04T07:28:43.053Z,100.00
2023-03-04T07:31:16.222Z,100.00
2023-03-04T07:33:43.110Z,100.00
2023-03-04T07:36:09.758Z,100.00
2023-03-04T07:38:36.597Z,100.00
2023-03-04T07:41:03.323Z,100.00
2023-03-04T07:43:29.886Z,100.00
2023-03-04T07:46:01.951Z,100.00
2023-03-04T07:48:28.910Z,100.00
2023-03-04T07:51:13.690Z,100.00
2023-03-04T07:53:42.156Z,100.00
2023-03-04T07:56:12.493Z,100.00
2023-03-04T07:58:39.262Z,100.00
2023-03-04T08:01:14.013Z,100.00
2023-03-04T08:03:41.216Z,100.00
2023-03-04T08:06:09.547Z,100.00
2023-03-04T08:08:37.287Z,100.00
2023-03-04T08:11:08.695Z,100.00
2023-03-04T08:13:36.212Z,100.00
2023-03-04T08:16:03.492Z,100.00
2023-03-04T08:18:30.389Z,100.00
2023-03-04T08:20:56.988Z,100.00
2023-03-04T08:23:24.452Z,100.00
2023-03-04T08:25:51.951Z,100.00
2023-03-04T08:28:18.641Z,100.00
2023-03-04T08:30:45.366Z,100.00
2023-03-04T08:33:12.067Z,100.00
2023-03-04T08:35:40.594Z,100.00
2023-03-04T08:38:07.452Z,100.00
2023-03-04T08:40:34.331Z,100.00
2023-03-04T08:43:00.989Z,100.00
2023-03-04T08:45:27.712Z,100.00
2023-03-04T08:47:54.491Z,100.00
2023-03-04T08:50:22.501Z,100.00
2023-03-04T08:52:49.582Z,100.00
2023-03-04T08:55:16.541Z,100.00
2023-03-04T08:57:43.081Z,100.00
2023-03-04T09:00:10.786Z,100.00
2023-03-04T09:02:37.286Z,100.00
2023-03-04T09:05:04.818Z,100.00
2023-03-04T09:07:31.485Z,100.00
2023-03-04T09:09:58.202Z,100.00
2023-03-04T09:12:25.025Z,100.00
2023-03-04T09:15:04.776Z,100.00
2023-03-04T09:17:36.882Z,100.00
2023-03-04T09:20:04.872Z,100.00
2023-03-04T09:22:31.785Z,100.00
2023-03-04T09:24:58.595Z,100.00
2023-03-04T09:27:25.383Z,100.00
2023-03-04T09:29:52.107Z,100.00
2023-03-04T09:32:19.056Z,100.00
2023-03-04T09:34:45.691Z,100.00
2023-03-04T09:37:12.632Z,100.00
2023-03-04T09:39:39.356Z,100.00
2023-03-04T09:42:09.242Z,100.00
2023-03-04T09:44:41.090Z,100.00
2023-03-04T09:47:12.743Z,91.19
2023-03-04T09:49:42.336Z,82.76
2023-03-04T09:52:20.934Z,86.16
2023-03-04T09:55:06.479Z,76.18
2023-03-04T09:57:42.671Z,77.07
2023-03-04T10:00:38.970Z,72.01
2023-03-04T10:03:19.673Z,63.45
2023-03-04T10:05:54.430Z,65.63
2023-03-04T10:08:46.055Z,61.36
2023-03-04T10:11:23.571Z,61.05
2023-03-04T10:14:16.528Z,60.25
2023-03-04T10:16:49.034Z,63.20
2023-03-04T10:19:18.807Z,59.65
2023-03-04T10:21:48.298Z,63.37
2023-03-04T10:24:22.484Z,55.83
2023-03-04T10:26:53.991Z,53.22
2023-03-04T10:29:24.609Z,55.84
2023-03-04T10:31:51.644Z,51.76
2023-03-04T10:34:18.804Z,52.07
2023-03-04T10:36:59.159Z,54.27
2023-03-04T10:39:39.692Z,50.16
2023-03-04T10:42:23.609Z,49.33
2023-03-04T10:44:53.500Z,50.00
2023-03-04T10:47:20.065Z,51.51
2023-03-04T10:49:57.400Z,48.50
2023-03-04T10:52:38.625Z,46.81
2023-03-04T10:55:26.063Z,45.17
2023-03-04T10:57:57.951Z,44.25
2023-03-04T11:00:35.638Z,45.71
2023-03-04T11:03:29.688Z,45.42
2023-03-04T11:06:17.036Z,41.42
2023-03-04T11:08:58.016Z,40.57
2023-03-04T11:11:25.870Z,40.36
2023-03-04T11:13:58.544Z,40.62
2023-03-04T11:16:28.469Z,42.49
2023-03-04T11:19:06.775Z,41.22
2023-03-04T11:21:40.339Z,38.18
2023-03-04T11:24:27.565Z,39.26
2023-03-04T11:27:03.841Z,39.43
2023-03-04T11:30:17.325Z,40.87
2023-03-04T11:32:47.937Z,41.65
2023-03-04T11:35:38.973Z,39.44
2023-03-04T11:38:22.285Z,38.10
2023-03-04T11:40:57.608Z,37.48
2023-03-04T11:43:37.005Z,37.17
2023-03-04T11:46:06.267Z,36.73
2023-03-04T11:48:45.095Z,36.27
2023-03-04T11:51:34.877Z,35.88
2023-03-04T11:54:37.762Z,38.58
2023-03-04T11:57:34.725Z,40.42
2023-03-04T12:00:25.667Z,37.60
2023-03-04T12:03:15.384Z,39.46
2023-03-04T12:06:07.005Z,38.24
2023-03-04T12:08:39.735Z,35.57
2023-03-04T12:11:20.812Z,39.04
2023-03-04T12:14:11.335Z,37.72
2023-03-04T12:16:50.346Z,37.36
2023-03-04T12:19:53.930Z,36.38
2023-03-04T12:22:32.795Z,38.38
2023-03-04T12:25:33.234Z,38.95
2023-03-04T12:28:08.920Z,41.02
2023-03-04T12:30:52.576Z,43.50
2023-03-04T12:33:47.360Z,44.46
2023-03-04T12:36:26.263Z,45.56
2023-03-04T12:39:00.475Z,45.51
2023-03-04T12:41:39.952Z,46.32
2023-03-04T12:44:12.391Z,49.75
2023-03-04T12:46:57.349Z,49.17
2023-03-04T12:49:42.580Z,45.73
2023-03-04T12:52:40.414Z,40.38
2023-03-04T12:55:14.216Z,38.93
2023-03-04T12:57:41.131Z,37.77
2023-03-04T13:00:40.640Z,38.48
2023-03-04T13:03:20.228Z,38.48
2023-03-04T13:06:04.894Z,36.34
2023-03-04T13:08:38.550Z,37.48
2023-03-04T13:11:28.241Z,37.74
2023-03-04T13:14:04.099Z,37.94
2023-03-04T13:16:41.961Z,36.93
2023-03-04T13:19:46.692Z,36.47
2023-03-04T13:22:40.643Z,36.43
2023-03-04T13:25:31.225Z,35.20
2023-03-04T13:28:03.912Z,32.65
2023-03-04T13:30:38.198Z,32.67
2023-03-04T13:33:11.032Z,34.40
2023-03-04T13:35:50.223Z,31.84
2023-03-04T13:38:56.911Z,34.08
2023-03-04T13:41:28.843Z,33.41
2023-03-04T13:44:00.825Z,34.76
2023-03-04T13:46:27.923Z,37.18
2023-03-04T13:48:54.445Z,39.29
2023-03-04T13:51:41.541Z,38.27
2023-03-04T13:54:21.951Z,37.27
2023-03-04T13:57:09.670Z,36.95
2023-03-04T13:59:45.208Z,37.19
2023-03-04T14:02:17.146Z,37.91
2023-03-04T14:04:46.472Z,36.20
2023-03-04T14:07:29.798Z,36.79
2023-03-04T14:10:12.956Z,35.88
2023-03-04T14:12:50.386Z,35.67
2023-03-04T14:15:27.777Z,34.08
2023-03-04T14:18:03.394Z,33.80
2023-03-04T14:20:38.253Z,34.85
2023-03-04T14:23:24.950Z,34.21
2023-03-04T14:25:51.662Z,32.78
2023-03-04T14:28:20.913Z,32.90
2023-03-04T14:30:56.479Z,32.89
2023-03-04T14:33:31.042Z,33.76
2023-03-04T14:36:01.076Z,33.31
2023-03-04T14:38:34.952Z,33.13
2023-03-04T14:41:12.732Z,35.23
2023-03-04T14:43:56.897Z,35.09
2023-03-04T14:46:29.081Z,34.13
2023-03-04T14:48:56.523Z,33.90
2023-03-04T14:51:38.910Z,33.98
2023-03-04T14:54:05.793Z,34.79
2023-03-04T14:56:35.583Z,34.78
2023-03-04T14:59:02.784Z,34.82
2023-03-04T15:01:35.583Z,35.68
2023-03-04T15:04:13.874Z,35.68
2023-03-04T15:06:54.245Z,35.13
2023-03-04T15:09:26.901Z,35.50
2023-03-04T15:12:03.792Z,35.98
2023-03-04T15:15:00.679Z,39.48
2023-03-04T15:17:38.110Z,41.70
2023-03-04T15:20:08.658Z,43.29
2023-03-04T15:22:44.939Z,45.80
2023-03-04T15:25:15.596Z,46.42
2023-03-04T15:27:44.267Z,48.44
2023-03-04T15:30:25.851Z,50.17
2023-03-04T15:32:53.422Z,52.31
2023-03-04T15:35:20.878Z,52.77
2023-03-04T15:37:49.508Z,56.17
2023-03-04T15:40:31.585Z,58.83
2023-03-04T15:43:00.719Z,60.52
2023-03-04T15:45:37.066Z,64.42
2023-03-04T15:48:09.896Z,68.58
2023-03-04T15:50:39.787Z,67.68
2023-03-04T15:53:19.654Z,67.20
2023-03-04T15:55:46.981Z,68.61
2023-03-04T15:58:14.834Z,72.71
2023-03-04T16:00:41.461Z,75.69
2023-03-04T16:03:15.280Z,77.02
2023-03-04T16:05:43.330Z,79.47
2023-03-04T16:08:14.766Z,79.77
2023-03-04T16:10:43.852Z,84.20
2023-03-04T16:13:16.249Z,84.16
2023-03-04T16:15:43.316Z,82.83
2023-03-04T16:18:12.042Z,83.80
2023-03-04T16:20:40.513Z,86.24
2023-03-04T16:23:13.394Z,86.34
2023-03-04T16:25:43.698Z,88.68
2023-03-04T16:28:11.644Z,88.85
2023-03-04T16:30:38.766Z,91.15
2023-03-04T16:33:05.775Z,93.27
2023-03-04T16:35:35.735Z,92.78
2023-03-04T16:38:02.902Z,91.98
2023-03-04T16:40:31.104Z,94.43
2023-03-04T16:42:57.739Z,97.29
2023-03-04T16:45:27.072Z,98.63
2023-03-04T16:47:54.309Z,100.00
2023-03-04T16:50:27.346Z,100.00
2023-03-04T16:52:55.845Z,100.00
2023-03-04T16:55:25.365Z,100.00
2023-03-04T16:57:52.399Z,100.00
2023-03-04T17:00:20.908Z,100.00
2023-03-04T17:02:59.490Z,100.00
2023-03-04T17:05:29.748Z,100.00
2023-03-04T17:07:56.483Z,100.00
2023-03-04T17:10:23.635Z,100.00
2023-03-04T17:12:52.078Z,100.00
2023-03-04T17:15:19.151Z,100.00
2023-03-04T17:17:46.305Z,100.00
2023-03-04T17:20:18.069Z,100.00
2023-03-04T17:22:44.957Z,100.00
2023-03-04T17:25:12.588Z,100.00
2023-03-04T17:27:39.464Z,100.00
2023-03-04T17:30:08.583Z,100.00
2023-03-04T17:32:36.773Z,100.00
2023-03-04T17:35:05.579Z,100.00
2023-03-04T17:37:32.235Z,100.00
2023-03-04T17:39:59.033Z,100.00
2023-03-04T17:42:25.732Z,100.00
2023-03-04T17:44:52.419Z,100.00
2023-03-04T17:47:19.172Z,100.00
2023-03-04T17:49:45.877Z,100.00
2023-03-04T17:52:12.584Z,100.00
2023-03-04T17:54:39.258Z,100.00
2023-03-04T17:57:06.184Z,100.00
2023-03-04T17:59:32.829Z,100.00
2023-03-04T18:01:59.537Z,100.00
2023-03-04T18:04:26.364Z,100.00
2023-03-04T18:06:53.214Z,100.00
2023-03-04T18:09:19.859Z,100.00
2023-03-04T18:11:46.607Z,100.00
2023-03-04T18:14:18.602Z,100.00
2023-03-04T18:16:45.431Z,100.00
2023-03-04T18:19:11.988Z,100.00
2023-03-04T18:21:38.938Z,100.00
2023-03-04T18:24:05.886Z,100.00
2023-03-04T18:26:32.744Z,100.00
2023-03-04T18:28:59.296Z,100.00
2023-03-04T18:31:31.003Z,100.00
2023-03-04T18:34:00.891Z,100.00
2023-03-04T18:36:27.709Z,100.00
2023-03-04T18:38:55.100Z,100.00
2023-03-04T18:41:21.804Z,100.00
2023-03-04T18:43:48.533Z,100.00
2023-03-04T18:46:26.786Z,100.00
2023-03-04T18:48:55.894Z,100.00
2023-03-04T18:51:22.494Z,100.00
2023-03-04T18:53:49.355Z,100.00
2023-03-04T18:56:22.027Z,100.00
2023-03-04T18:58:50.659Z,100.00
2023-03-04T19:01:20.891Z,100.00
2023-03-04T19:03:48.274Z,100.00
2023-03-04T19:06:15.441Z,100.00
2023-03-04T19:08:42.050Z,100.00
2023-03-04T19:11:08.835Z,100.00
2023-03-04T19:13:35.528Z,100.00
2023-03-04T19:16:02.358Z,100.00
2023-03-04T19:18:29.516Z,100.00
2023-03-04T19:20:59.596Z,100.00
2023-03-04T19:23:27.266Z,100.00
2023-03-04T19:25:53.851Z,100.00
2023-03-04T19:28:20.817Z,100.00
2023-03-04T19:30:47.508Z,100.00
2023-03-04T19:33:14.248Z,100.00
2023-03-04T19:35:43.015Z,100.00
2023-03-04T19:38:09.639Z,100.00
2023-03-04T19:40:40.485Z,100.00
2023-03-04T19:43:07.758Z,100.00
2023-03-04T19:45:34.790Z,100.00
2023-03-04T19:48:03.035Z,100.00
2023-03-04T19:50:31.357Z,100.00
2023-03-04T19:52:58.349Z,100.00
2023-03-04T19:55:25.199Z,100.00
2023-03-04T19:57:51.957Z,100.00
2023-03-04T20:00:18.927Z,100.00
2023-03-04T20:02:47.926Z,100.00
2023-03-04T20:05:15.055Z,100.00
2023-03-04T20:07:41.806Z,100.00
2023-03-04T20:10:09.305Z,100.00
2023-03-04T20:12:36.318Z,100.00
2023-03-04T20:15:06.012Z,100.00
2023-03-04T20:17:32.692Z,100.00
2023-03-04T20:19:59.240Z,100.00
2023-03-04T20:22:26.151Z,100.00
2023-03-04T20:24:54.806Z,100.00
2023-03-04T20:27:21.533Z,100.00
2023-03-04T20:29:49.216Z,100.00
2023-03-04T20:32:15.925Z,100.00
2023-03-04T20:34:42.704Z,100.00
2023-03-04T20:37:09.417Z,100.00
2023-03-04T20:39:36.347Z,100.00
2023-03-04T20:42:03.766Z,100.00
2023-03-04T20:44:30.420Z,100.00
2023-03-04T20:46:57.641Z,100.00
2023-03-04T20:49:27.187Z,100.00
2023-03-04T20:51:56.007Z,100.00
2023-03-04T20:54:22.712Z,100.00
2023-03-04T20:56:49.724Z,100.00
2023-03-04T20:59:17.238Z,100.00
2023-03-04T21:01:45.395Z,100.00
2023-03-04T21:04:12.175Z,100.00
2023-03-04T21:06:40.672Z,100.00
2023-03-04T21:09:11.747Z,100.00
2023-03-04T21:11:42.008Z,100.00
2023-03-04T21:14:19.592Z,100.00
2023-03-04T21:16:46.929Z,100.00
2023-03-04T21:19:16.781Z,100.00
2023-03-04T21:21:44.361Z,100.00
2023-03-04T21:24:14.519Z,100.00
2023-03-04T21:26:45.199Z,100.00
2023-03-04T21:29:13.106Z,100.00
2023-03-04T21:31:43.548Z,100.00
2023-03-04T21:34:25.060Z,100.00
2023-03-04T21:36:51.744Z,100.00
2023-03-04T21:39:24.149Z,100.00
2023-03-04T21:41:51.875Z,100.00
2023-03-04T21:44:27.972Z,100.00
2023-03-04T21:46:56.786Z,100.00
2023-03-04T21:49:23.433Z,100.00
2023-03-04T21:51:50.115Z,100.00
2023-03-04T21:54:16.762Z,100.00
2023-03-04T21:56:43.342Z,100.00
2023-03-04T21:59:12.953Z,100.00
2023-03-04T22:01:40.564Z,100.00
2023-03-04T22:04:07.542Z,100.00
2023-03-04T22:06:34.432Z,100.00
2023-03-04T22:09:02.864Z,100.00
2023-03-04T22:11:30.478Z,100.00
2023-03-04T22:13:59.903Z,100.00
2023-03-04T22:16:27.669Z,100.00
2023-03-04T22:18:54.966Z,100.00
2023-03-04T22:21:22.035Z,100.00
2023-03-04T22:23:49.342Z,100.00
2023-03-04T22:26:18.005Z,100.00
2023-03-04T22:28:44.807Z,100.00
2023-03-04T22:31:20.584Z,100.00
2023-03-04T22:33:47.556Z,100.00
2023-03-04T22:36:14.565Z,100.00
2023-03-04T22:38:41.522Z,100.00
2023-03-04T22:41:19.024Z,100.00
2023-03-04T22:43:46.656Z,100.00
2023-03-04T22:46:22.560Z,100.00
2023-03-04T22:48:50.978Z,100.00
2023-03-04T22:51:18.500Z,100.00
2023-03-04T22:53:45.265Z,100.00
2023-03-04T22:56:13.950Z,100.00
2023-03-04T22:58:41.730Z,100.00
2023-03-04T23:01:09.380Z,100.00
2023-03-04T23:03:36.860Z,100.00
2023-03-04T23:06:30.442Z,100.00
2023-03-04T23:08:58.935Z,100.00
2023-03-04T23:11:31.353Z,100.00
2023-03-04T23:14:02.234Z,100.00
2023-03-04T23:16:29.100Z,100.00
2023-03-04T23:18:58.193Z,100.00
2023-03-04T23:21:28.272Z,100.00
2023-03-04T23:23:54.979Z,100.00
2023-03-04T23:26:27.729Z,100.00
2023-03-04T23:28:57.243Z,100.00
2023-03-04T23:31:25.521Z,100.00
2023-03-04T23:33:57.054Z,100.00
2023-03-04T23:36:26.894Z,100.00
2023-03-04T23:38:54.071Z,100.00
2023-03-04T23:41:23.864Z,100.00
2023-03-04T23:43:53.834Z,100.00
2023-03-04T23:46:21.030Z,100.00
2023-03-04T23:48:47.934Z,100.00
2023-03-04T23:51:17.159Z,100.00
2023-03-04T23:53:44.526Z,100.00
2023-03-04T23:56:16.550Z,100.00
2023-03-04T23:58:44.470Z,100.00
